createdAt,value
2023-02-24T00:00:56.720Z,21.10
2023-02-24T00:03:28.007Z,21.20
2023-02-24T00:05:58.872Z,21.20
2023-02-24T00:08:30.156Z,21.40
2023-02-24T00:11:00.275Z,21.50
2023-02-24T00:13:32.427Z,21.60
2023-02-24T00:16:05.170Z,21.70
2023-02-24T00:18:37.455Z,21.70
2023-02-24T00:21:12.702Z,21.80
2023-02-24T00:23:44.580Z,21.90
2023-02-24T00:26:17.976Z,21.90
2023-02-24T00:28:48.464Z,22.00
2023-02-24T00:31:21.054Z,22.00
2023-02-24T00:33:52.392Z,22.20
2023-02-24T00:36:27.795Z,22.20
2023-02-24T00:39:00.899Z,22.20
2023-02-24T00:41:34.448Z,22.30
2023-02-24T00:44:11.361Z,22.40
2023-02-24T00:46:46.289Z,22.30
2023-02-24T00:49:20.277Z,22.50
2023-02-24T00:51:55.984Z,22.60
2023-02-24T00:54:29.745Z,22.50
2023-02-24T00:57:00.377Z,22.60
2023-02-24T00:59:30.726Z,22.70
2023-02-24T01:02:01.097Z,22.80
2023-02-24T01:04:32.645Z,23.00
2023-02-24T01:07:03.425Z,23.00
2023-02-24T01:09:36.592Z,23.20
2023-02-24T01:12:28.647Z,23.20
2023-02-24T01:14:59.817Z,23.30
2023-02-24T01:17:29.980Z,23.30
2023-02-24T01:20:17.558Z,23.40
2023-02-24T01:22:51.947Z,23.70
2023-02-24T01:25:22.151Z,23.70
2023-02-24T01:27:54.405Z,23.90
2023-02-24T01:30:25.244Z,23.80
2023-02-24T01:32:55.217Z,23.90
2023-02-24T01:35:27.446Z,24.00
2023-02-24T01:37:57.919Z,24.10
2023-02-24T01:40:30.845Z,24.20
2023-02-24T01:43:02.240Z,24.40
2023-02-24T01:45:38.276Z,24.40
2023-02-24T01:48:11.811Z,24.50
2023-02-24T01:50:43.276Z,24.60
2023-02-24T01:53:14.427Z,24.70
2023-02-24T01:55:53.751Z,24.70
2023-02-24T01:58:30.919Z,24.90
2023-02-24T02:01:01.878Z,25.00
2023-02-24T02:03:36.638Z,25.20
2023-02-24T02:06:12.746Z,25.30
2023-02-24T02:08:47.910Z,25.20
2023-02-24T02:11:22.102Z,25.30
2023-02-24T02:13:54.727Z,25.30
2023-02-24T02:17:04.538Z,25.50
2023-02-24T02:20:17.620Z,25.60
2023-02-24T02:23:27.199Z,26.00
2023-02-24T02:26:37.297Z,25.90
2023-02-24T02:29:47.166Z,25.90
2023-02-24T02:33:03.237Z,25.90
2023-02-24T02:36:02.101Z,26.30
2023-02-24T02:38:59.146Z,26.40
2023-02-24T02:41:49.526Z,26.50
2023-02-24T02:44:33.830Z,26.60
2023-02-24T02:47:16.487Z,26.70
2023-02-24T02:49:56.559Z,26.80
2023-02-24T02:52:42.623Z,26.70
2023-02-24T02:55:20.348Z,26.90
2023-02-24T02:57:54.524Z,27.20
2023-02-24T03:00:30.925Z,27.40
2023-02-24T03:03:10.845Z,27.50
2023-02-24T03:05:48.915Z,27.70
2023-02-24T03:08:27.323Z,27.50
2023-02-24T03:11:02.067Z,27.70
2023-02-24T03:13:38.336Z,27.90
2023-02-24T03:16:12.806Z,28.00
2023-02-24T03:18:55.372Z,28.40
2023-02-24T03:21:42.592Z,28.10
2023-02-24T03:24:13.294Z,28.50
2023-02-24T03:27:02.586Z,28.90
2023-02-24T03:29:54.935Z,28.80
2023-02-24T03:32:35.914Z,28.80
2023-02-24T03:35:19.612Z,29.20
2023-02-24T03:37:51.506Z,28.90
2023-02-24T03:40:22.643Z,29.30
2023-02-24T03:42:59.606Z,29.40
2023-02-24T03:45:31.297Z,29.40
2023-02-24T03:48:04.617Z,29.70
2023-02-24T03:50:35.881Z,30.00
2023-02-24T03:53:35.259Z,29.80
2023-02-24T03:56:47.421Z,29.80
2023-02-24T03:59:59.246Z,30.30
2023-02-24T04:02:36.130Z,30.10
2023-02-24T04:05:16.961Z,30.60
2023-02-24T04:08:10.522Z,30.60
2023-02-24T04:10:55.191Z,30.60
2023-02-24T04:13:40.833Z,30.80
2023-02-24T04:16:30.512Z,30.80
2023-02-24T04:19:06.599Z,31.20
2023-02-24T04:21:40.732Z,31.50
2023-02-24T04:24:17.828Z,31.40
2023-02-24T04:26:51.447Z,31.50
2023-02-24T04:29:25.590Z,31.10
2023-02-24T04:32:08.038Z,31.60
2023-02-24T04:34:41.835Z,31.80
2023-02-24T04:37:12.445Z,31.70
2023-02-24T04:39:43.326Z,31.90
2023-02-24T04:42:23.913Z,31.90
2023-02-24T04:44:55.327Z,32.10
2023-02-24T04:47:25.728Z,32.40
2023-02-24T04:49:56.607Z,32.50
2023-02-24T04:52:26.776Z,32.60
2023-02-24T04:54:57.228Z,32.60
2023-02-24T04:57:27.561Z,32.20
2023-02-24T04:59:59.072Z,31.90
2023-02-24T05:02:29.412Z,31.90
2023-02-24T05:05:00.970Z,32.20
2023-02-24T05:07:31.619Z,32.70
2023-02-24T05:10:02.091Z,33.20
2023-02-24T05:12:34.396Z,33.10
2023-02-24T05:15:05.608Z,32.90
2023-02-24T05:17:36.984Z,33.20
2023-02-24T05:20:28.604Z,33.30
2023-02-24T05:22:59.134Z,33.40
2023-02-24T05:25:29.557Z,33.70
2023-02-24T05:28:00.263Z,33.70
2023-02-24T05:30:30.714Z,33.80
2023-02-24T05:33:01.439Z,33.80
2023-02-24T05:35:33.899Z,34.20
2023-02-24T05:38:05.308Z,34.20
2023-02-24T05:40:36.193Z,33.90
2023-02-24T05:43:06.965Z,34.00
2023-02-24T05:45:37.372Z,33.90
2023-02-24T05:48:07.862Z,33.90
2023-02-24T05:50:40.530Z,34.30
2023-02-24T05:53:11.100Z,34.60
2023-02-24T05:55:42.465Z,34.00
2023-02-24T05:58:12.587Z,34.10
2023-02-24T06:00:47.479Z,34.00
2023-02-24T06:03:18.998Z,34.20
2023-02-24T06:06:07.013Z,34.70
2023-02-24T06:08:50.882Z,34.90
2023-02-24T06:11:22.615Z,34.90
2023-02-24T06:13:59.183Z,35.00
2023-02-24T06:16:30.074Z,34.90
2023-02-24T06:19:01.480Z,34.60
2023-02-24T06:21:31.646Z,34.60
2023-02-24T06:24:02.533Z,34.90
2023-02-24T06:26:35.228Z,34.70
2023-02-24T06:29:07.905Z,35.20
2023-02-24T06:31:38.586Z,35.30
2023-02-24T06:34:11.827Z,35.10
2023-02-24T06:36:44.589Z,35.30
2023-02-24T06:39:16.149Z,35.00
2023-02-24T06:41:46.631Z,34.80
2023-02-24T06:44:16.732Z,35.00
2023-02-24T06:46:47.777Z,35.50
2023-02-24T06:49:18.295Z,35.50
2023-02-24T06:51:50.183Z,35.50
2023-02-24T06:54:20.758Z,35.70
2023-02-24T06:56:52.747Z,36.00
2023-02-24T06:59:30.182Z,35.90
2023-02-24T07:02:04.904Z,35.60
2023-02-24T07:04:45.126Z,35.70
2023-02-24T07:07:16.031Z,35.90
2023-02-24T07:09:47.539Z,35.60
2023-02-24T07:12:22.455Z,36.00
2023-02-24T07:14:52.779Z,36.10
2023-02-24T07:17:24.900Z,36.20
2023-02-24T07:19:56.145Z,36.20
2023-02-24T07:22:26.747Z,36.10
2023-02-24T07:25:02.048Z,36.00
2023-02-24T07:27:32.696Z,36.10
2023-02-24T07:30:07.787Z,35.90
2023-02-24T07:32:39.854Z,36.00
2023-02-24T07:35:10.866Z,36.20
2023-02-24T07:37:43.289Z,36.10
2023-02-24T07:40:18.889Z,36.20
2023-02-24T07:42:49.345Z,36.30
2023-02-24T07:45:20.001Z,36.40
2023-02-24T07:47:51.028Z,36.00
2023-02-24T07:50:21.480Z,36.10
2023-02-24T07:52:53.317Z,36.20
2023-02-24T07:55:27.256Z,36.00
2023-02-24T07:57:58.692Z,35.50
2023-02-24T08:00:29.797Z,36.00
2023-02-24T08:03:02.205Z,36.00
2023-02-24T08:05:32.222Z,36.00
2023-02-24T08:08:01.984Z,36.20
2023-02-24T08:10:38.404Z,36.20
2023-02-24T08:13:09.229Z,35.80
2023-02-24T08:15:39.500Z,36.10
2023-02-24T08:18:10.022Z,36.20
2023-02-24T08:21:00.185Z,36.10
2023-02-24T08:23:31.788Z,35.70
2023-02-24T08:26:05.425Z,35.60
2023-02-24T08:28:36.317Z,35.60
2023-02-24T08:31:07.369Z,35.60
2023-02-24T08:33:38.967Z,35.40
2023-02-24T08:36:09.428Z,35.10
2023-02-24T08:38:43.555Z,35.30
2023-02-24T08:41:20.036Z,35.20
2023-02-24T08:43:51.828Z,35.20
2023-02-24T08:46:27.727Z,35.30
2023-02-24T08:49:02.324Z,35.30
2023-02-24T08:51:36.901Z,35.40
2023-02-24T08:54:16.926Z,35.30
2023-02-24T08:56:51.104Z,35.20
2023-02-24T08:59:39.192Z,35.40
2023-02-24T09:02:26.073Z,35.30
2023-02-24T09:05:05.350Z,35.10
2023-02-24T09:07:42.304Z,34.80
2023-02-24T09:10:20.248Z,34.50
2023-02-24T09:12:51.153Z,34.40
2023-02-24T09:15:24.301Z,34.70
2023-02-24T09:18:08.781Z,34.60
2023-02-24T09:20:58.936Z,34.80
2023-02-24T09:23:32.675Z,34.80
2023-02-24T09:26:12.672Z,34.70
2023-02-24T09:28:57.242Z,34.70
2023-02-24T09:31:42.269Z,34.70
2023-02-24T09:34:17.263Z,34.80
2023-02-24T09:37:03.275Z,34.50
2023-02-24T09:39:56.930Z,34.30
2023-02-24T09:42:36.174Z,34.40
2023-02-24T09:45:13.349Z,34.40
2023-02-24T09:48:08.538Z,34.30
2023-02-24T09:51:02.090Z,34.20
2023-02-24T09:53:50.795Z,34.10
2023-02-24T09:56:44.101Z,34.00
2023-02-24T09:59:52.511Z,33.70
2023-02-24T10:02:48.418Z,33.70
2023-02-24T10:05:49.394Z,33.70
2023-02-24T10:08:37.568Z,33.70
2023-02-24T10:11:11.348Z,33.70
2023-02-24T10:14:03.457Z,33.70
2023-02-24T10:16:45.970Z,33.70
2023-02-24T10:19:36.063Z,33.60
2023-02-24T10:22:30.066Z,33.40
2023-02-24T10:25:39.861Z,33.50
2023-02-24T10:28:41.758Z,33.50
2023-02-24T10:31:27.707Z,33.40
2023-02-24T10:34:27.879Z,33.20
2023-02-24T10:36:59.096Z,33.20
2023-02-24T10:39:31.877Z,33.20
2023-02-24T10:42:26.245Z,33.10
2023-02-24T10:45:20.066Z,33.00
2023-02-24T10:47:59.552Z,32.80
2023-02-24T10:50:55.345Z,32.80
2023-02-24T10:53:36.493Z,32.70
2023-02-24T10:56:37.227Z,32.50
2023-02-24T10:59:33.813Z,32.40
2023-02-24T11:02:34.176Z,32.30
2023-02-24T11:05:31.292Z,32.20
2023-02-24T11:08:37.392Z,32.20
2023-02-24T11:11:32.223Z,32.20
2023-02-24T11:14:24.280Z,32.00
2023-02-24T11:17:17.801Z,31.90
2023-02-24T11:19:57.767Z,31.80
2023-02-24T11:22:36.004Z,31.80
2023-02-24T11:25:14.915Z,31.70
2023-02-24T11:27:48.426Z,31.60
2023-02-24T11:30:43.715Z,31.50
2023-02-24T11:33:44.034Z,31.40
2023-02-24T11:36:35.374Z,31.30
2023-02-24T11:39:37.526Z,31.10
2023-02-24T11:42:14.681Z,31.00
2023-02-24T11:45:24.346Z,30.90
2023-02-24T11:48:17.582Z,30.80
2023-02-24T11:51:13.148Z,30.70
2023-02-24T11:53:54.040Z,30.60
2023-02-24T11:56:47.183Z,30.40
2023-02-24T11:59:40.058Z,30.30
2023-02-24T12:02:40.192Z,30.30
2023-02-24T12:05:19.138Z,30.10
2023-02-24T12:08:18.069Z,30.20
2023-02-24T12:10:55.925Z,30.00
2023-02-24T12:13:44.448Z,29.90
2023-02-24T12:16:38.041Z,29.90
2023-02-24T12:19:36.028Z,29.80
2023-02-24T12:22:17.399Z,29.80
2023-02-24T12:24:54.484Z,29.70
2023-02-24T12:27:43.896Z,29.70
2023-02-24T12:30:39.774Z,29.60
2023-02-24T12:33:50.808Z,29.60
2023-02-24T12:37:00.768Z,29.50
2023-02-24T12:39:35.951Z,29.40
2023-02-24T12:42:31.359Z,29.40
2023-02-24T12:45:27.979Z,29.30
2023-02-24T12:48:37.450Z,29.20
2023-02-24T12:51:25.379Z,29.20
2023-02-24T12:54:16.714Z,29.10
2023-02-24T12:57:26.739Z,29.10
2023-02-24T12:59:58.251Z,29.00
2023-02-24T13:03:08.304Z,29.00
2023-02-24T13:06:04.262Z,29.00
2023-02-24T13:09:05.400Z,29.00
2023-02-24T13:12:08.619Z,28.90
2023-02-24T13:14:44.036Z,28.90
2023-02-24T13:17:25.481Z,28.80
2023-02-24T13:19:57.802Z,28.80
2023-02-24T13:22:34.939Z,28.80
2023-02-24T13:25:23.231Z,28.80
2023-02-24T13:28:37.657Z,28.70
2023-02-24T13:31:15.603Z,28.70
2023-02-24T13:33:47.488Z,28.60
2023-02-24T13:36:24.369Z,28.60
2023-02-24T13:39:08.263Z,28.50
2023-02-24T13:41:42.531Z,28.40
2023-02-24T13:44:33.579Z,28.50
2023-02-24T13:47:42.164Z,28.40
2023-02-24T13:50:30.495Z,28.40
2023-02-24T13:53:43.292Z,28.30
2023-02-24T13:56:43.661Z,28.20
2023-02-24T13:59:53.235Z,28.10
2023-02-24T14:02:30.499Z,28.10
2023-02-24T14:05:04.960Z,28.10
2023-02-24T14:07:43.859Z,28.00
2023-02-24T14:10:24.899Z,28.00
2023-02-24T14:13:17.462Z,27.90
2023-02-24T14:15:49.857Z,27.80
2023-02-24T14:18:30.396Z,27.80
2023-02-24T14:21:03.581Z,27.70
2023-02-24T14:23:37.054Z,27.70
2023-02-24T14:26:17.460Z,27.60
2023-02-24T14:28:57.697Z,27.60
2023-02-24T14:31:28.610Z,27.50
2023-02-24T14:34:03.965Z,27.70
2023-02-24T14:36:44.039Z,27.50
2023-02-24T14:39:26.852Z,27.40
2023-02-24T14:42:17.465Z,27.40
2023-02-24T14:44:59.429Z,27.40
2023-02-24T14:47:30.832Z,27.20
2023-02-24T14:50:12.744Z,27.20
2023-02-24T14:53:07.959Z,27.20
2023-02-24T14:55:41.449Z,27.30
2023-02-24T14:58:30.929Z,27.20
2023-02-24T15:01:19.204Z,27.10
2023-02-24T15:03:57.347Z,27.00
2023-02-24T15:06:33.290Z,27.00
2023-02-24T15:09:10.479Z,26.90
2023-02-24T15:11:43.678Z,26.80
2023-02-24T15:14:28.942Z,26.90
2023-02-24T15:17:22.130Z,26.90
2023-02-24T15:19:59.763Z,26.80
2023-02-24T15:22:36.169Z,26.70
2023-02-24T15:25:41.834Z,26.70
2023-02-24T15:28:34.785Z,26.70
2023-02-24T15:31:23.582Z,26.70
2023-02-24T15:34:15.544Z,26.60
2023-02-24T15:36:48.313Z,26.70
2023-02-24T15:39:32.758Z,26.60
2023-02-24T15:42:23.120Z,26.50
2023-02-24T15:45:01.191Z,26.50
2023-02-24T15:47:49.140Z,26.40
2023-02-24T15:50:24.981Z,26.30
2023-02-24T15:53:07.455Z,26.30
2023-02-24T15:55:37.697Z,26.20
2023-02-24T15:58:08.580Z,26.20
2023-02-24T16:00:39.178Z,26.10
2023-02-24T16:03:13.652Z,26.10
2023-02-24T16:05:47.627Z,26.00
2023-02-24T16:08:22.286Z,26.00
2023-02-24T16:10:54.994Z,25.90
2023-02-24T16:13:29.120Z,25.90
2023-02-24T16:16:01.430Z,26.00
2023-02-24T16:18:33.577Z,25.80
2023-02-24T16:21:05.530Z,25.70
2023-02-24T16:23:44.869Z,25.60
2023-02-24T16:26:38.226Z,25.60
2023-02-24T16:29:17.566Z,25.50
2023-02-24T16:31:52.750Z,25.40
2023-02-24T16:34:27.844Z,25.40
2023-02-24T16:37:05.893Z,25.30
2023-02-24T16:39:36.393Z,25.20
2023-02-24T16:42:08.980Z,25.30
2023-02-24T16:44:39.815Z,25.30
2023-02-24T16:47:24.051Z,25.20
2023-02-24T16:49:59.384Z,25.20
2023-02-24T16:52:32.988Z,25.10
2023-02-24T16:55:06.843Z,25.10
2023-02-24T16:57:40.205Z,25.00
2023-02-24T17:00:14.836Z,24.90
2023-02-24T17:02:51.823Z,24.90
2023-02-24T17:05:29.560Z,24.80
2023-02-24T17:08:02.434Z,24.90
2023-02-24T17:10:40.216Z,24.70
2023-02-24T17:13:13.409Z,24.70
2023-02-24T17:16:00.913Z,24.70
2023-02-24T17:18:31.336Z,24.60
2023-02-24T17:21:07.454Z,24.60
2023-02-24T17:23:57.677Z,24.60
2023-02-24T17:26:34.182Z,24.60
2023-02-24T17:29:08.254Z,24.40
2023-02-24T17:31:43.947Z,24.40
2023-02-24T17:34:14.577Z,24.30
2023-02-24T17:36:49.082Z,24.30
2023-02-24T17:39:22.864Z,24.30
2023-02-24T17:41:53.348Z,24.30
2023-02-24T17:44:34.104Z,24.30
2023-02-24T17:47:06.769Z,24.30
2023-02-24T17:49:38.738Z,24.30
2023-02-24T17:52:09.317Z,24.30
2023-02-24T17:54:41.214Z,24.30
2023-02-24T17:57:17.466Z,24.10
2023-02-24T17:59:48.940Z,24.10
2023-02-24T18:02:21.181Z,24.10
2023-02-24T18:05:13.235Z,24.00
2023-02-24T18:07:43.636Z,23.90
2023-02-24T18:10:15.513Z,23.90
2023-02-24T18:12:45.592Z,23.90
2023-02-24T18:15:15.922Z,23.90
2023-02-24T18:17:48.159Z,23.70
2023-02-24T18:20:19.068Z,23.70
2023-02-24T18:22:51.149Z,23.70
2023-02-24T18:25:23.405Z,23.70
2023-02-24T18:27:57.783Z,23.70
2023-02-24T18:30:29.244Z,23.70
2023-02-24T18:33:02.524Z,23.50
2023-02-24T18:35:34.381Z,23.50
2023-02-24T18:38:04.850Z,23.50
2023-02-24T18:40:36.443Z,23.50
2023-02-24T18:43:09.102Z,23.50
2023-02-24T18:45:45.647Z,23.60
2023-02-24T18:48:16.608Z,23.50
2023-02-24T18:50:59.932Z,23.50
2023-02-24T18:53:32.950Z,23.50
2023-02-24T18:56:05.978Z,23.40
2023-02-24T18:58:38.540Z,23.30
2023-02-24T19:01:22.571Z,23.40
2023-02-24T19:03:53.723Z,23.30
2023-02-24T19:06:25.700Z,23.30
2023-02-24T19:09:04.272Z,23.30
2023-02-24T19:11:37.806Z,23.20
2023-02-24T19:14:12.735Z,23.20
2023-02-24T19:16:43.647Z,23.20
2023-02-24T19:19:18.627Z,23.20
2023-02-24T19:21:49.925Z,23.20
2023-02-24T19:24:23.370Z,23.20
2023-02-24T19:26:56.617Z,23.20
2023-02-24T19:29:29.859Z,23.10
2023-02-24T19:32:01.782Z,23.10
2023-02-24T19:34:34.524Z,23.00
2023-02-24T19:37:04.953Z,22.90
2023-02-24T19:39:36.657Z,23.00
2023-02-24T19:42:08.498Z,22.90
2023-02-24T19:44:39.000Z,22.90
2023-02-24T19:47:09.204Z,22.90
2023-02-24T19:49:40.174Z,23.00
2023-02-24T19:52:14.864Z,23.00
2023-02-24T19:54:44.907Z,22.80
2023-02-24T19:57:54.725Z,22.90
2023-02-24T20:01:16.937Z,22.90
2023-02-24T20:04:27.472Z,22.80
2023-02-24T20:07:37.124Z,22.80
2023-02-24T20:10:47.017Z,22.80
2023-02-24T20:13:18.096Z,22.80
2023-02-24T20:15:48.618Z,22.80
2023-02-24T20:18:58.860Z,22.80
2023-02-24T20:21:29.815Z,22.70
2023-02-24T20:24:14.924Z,22.60
2023-02-24T20:26:52.934Z,22.70
2023-02-24T20:29:27.545Z,22.60
2023-02-24T20:31:58.198Z,22.60
2023-02-24T20:34:29.630Z,22.70
2023-02-24T20:37:01.258Z,22.60
2023-02-24T20:39:34.591Z,22.60
2023-02-24T20:42:15.290Z,22.60
2023-02-24T20:44:47.743Z,22.60
2023-02-24T20:47:19.370Z,22.60
2023-02-24T20:49:49.486Z,22.50
2023-02-24T20:52:19.568Z,22.60
2023-02-24T20:54:52.926Z,22.60
2023-02-24T20:57:22.901Z,22.60
2023-02-24T21:00:03.041Z,22.60
2023-02-24T21:02:35.031Z,22.60
2023-02-24T21:05:07.204Z,22.60
2023-02-24T21:07:42.518Z,22.60
2023-02-24T21:10:13.837Z,22.60
2023-02-24T21:12:44.381Z,22.50
2023-02-24T21:15:14.708Z,22.50
2023-02-24T21:17:45.105Z,22.50
2023-02-24T21:20:18.647Z,22.50
2023-02-24T21:22:48.728Z,22.50
2023-02-24T21:25:19.007Z,22.50
2023-02-24T21:27:49.896Z,22.30
2023-02-24T21:30:21.085Z,22.40
2023-02-24T21:32:51.143Z,22.40
2023-02-24T21:35:22.864Z,22.20
2023-02-24T21:37:53.286Z,22.10
2023-02-24T21:40:26.728Z,22.30
2023-02-24T21:42:58.403Z,22.20
2023-02-24T21:45:29.373Z,22.10
2023-02-24T21:47:59.906Z,22.20
2023-02-24T21:50:31.284Z,22.10
2023-02-24T21:53:02.576Z,22.10
2023-02-24T21:55:32.663Z,22.40
2023-02-24T21:58:02.740Z,22.40
2023-02-24T22:00:34.829Z,22.50
2023-02-24T22:03:05.528Z,22.60
2023-02-24T22:05:36.333Z,22.60
2023-02-24T22:08:13.092Z,22.60
2023-02-24T22:10:43.650Z,22.50
2023-02-24T22:13:13.956Z,22.60
2023-02-24T22:15:44.075Z,22.60
2023-02-24T22:18:15.193Z,22.40
2023-02-24T22:20:47.544Z,22.40
2023-02-24T22:23:27.316Z,22.30
2023-02-24T22:25:57.681Z,22.30
2023-02-24T22:28:31.231Z,22.00
2023-02-24T22:31:01.821Z,22.00
2023-02-24T22:33:36.053Z,22.00
2023-02-24T22:36:17.906Z,21.90
2023-02-24T22:38:51.023Z,21.90
2023-02-24T22:41:26.284Z,21.90
2023-02-24T22:43:58.671Z,21.90
2023-02-24T22:46:32.804Z,21.80
2023-02-24T22:49:06.357Z,21.70
2023-02-24T22:51:36.616Z,21.90
2023-02-24T22:54:07.474Z,21.80
2023-02-24T22:56:39.415Z,21.80
2023-02-24T22:59:12.228Z,21.80
2023-02-24T23:01:44.318Z,21.60
2023-02-24T23:04:19.899Z,21.60
2023-02-24T23:06:50.338Z,21.70
2023-02-24T23:09:21.458Z,21.80
2023-02-24T23:11:54.009Z,21.60
2023-02-24T23:14:24.244Z,21.50
2023-02-24T23:16:57.161Z,21.40
2023-02-24T23:19:29.806Z,21.30
2023-02-24T23:22:00.506Z,21.40
2023-02-24T23:24:31.069Z,21.40
2023-02-24T23:27:03.192Z,21.40
2023-02-24T23:29:33.394Z,21.40
2023-02-24T23:32:05.430Z,21.40
2023-02-24T23:34:36.100Z,21.60
2023-02-24T23:37:09.253Z,21.70
2023-02-24T23:39:39.712Z,21.60
2023-02-24T23:42:11.630Z,21.70
2023-02-24T23:44:43.253Z,21.40
2023-02-24T23:47:14.104Z,21.60
2023-02-24T23:49:48.470Z,21.60
2023-02-24T23:52:20.850Z,21.80
2023-02-24T23:54:57.124Z,21.60
2023-02-24T23:57:29.802Z,21.50
